sensor_id;sensor_type;location;lat;lon;timestamp;P1;durP1;ratioP1;P2;durP2;ratioP2
72891;SDS011;61032;50.782;6.818;2022-12-18T00:00:40;13.38;;;6.05;;
72891;SDS011;61032;50.782;6.818;2022-12-18T00:01:41;10.00;;;5.80;;
72891;SDS011;61032;50.782;6.818;2022-12-18T00:02:41;10.00;;;5.88;;
72891;SDS011;61032;50.782;6.818;2022-12-18T00:03:42;9.77;;;5.22;;
72891;SDS011;61032;50.782;6.818;2022-12-18T00:04:42;11.60;;;5.22;;
72891;SDS011;61032;50.782;6.818;2022-12-18T00:05:46;11.23;;;5.60;;
72891;SDS011;61032;50.782;6.818;2022-12-18T00:06:47;11.02;;;6.10;;
72891;SDS011;61032;50.782;6.818;2022-12-18T00:07:48;10.82;;;5.93;;
72891;SDS011;61032;50.782;6.818;2022-12-18T00:08:49;12.45;;;6.38;;
72891;SDS011;61032;50.782;6.818;2022-12-18T00:09:49;10.95;;;5.72;;
72891;SDS011;61032;50.782;6.818;2022-12-18T00:10:49;10.82;;;6.35;;
72891;SDS011;61032;50.782;6.818;2022-12-18T00:11:49;10.45;;;5.63;;
72891;SDS011;61032;50.782;6.818;2022-12-18T00:12:50;9.70;;;5.70;;
72891;SDS011;61032;50.782;6.818;2022-12-18T00:13:50;8.68;;;6.13;;
72891;SDS011;61032;50.782;6.818;2022-12-18T00:14:51;10.75;;;6.03;;
72891;SDS011;61032;50.782;6.818;2022-12-18T00:15:51;12.77;;;5.90;;
72891;SDS011;61032;50.782;6.818;2022-12-18T00:16:52;11.30;;;6.18;;
72891;SDS011;61032;50.782;6.818;2022-12-18T00:17:52;9.70;;;5.57;;
72891;SDS011;61032;50.782;6.818;2022-12-18T00:18:53;10.27;;;6.05;;
72891;SDS011;61032;50.782;6.818;2022-12-18T00:19:55;12.85;;;5.53;;
72891;SDS011;61032;50.782;6.818;2022-12-18T00:20:58;10.88;;;5.82;;
72891;SDS011;61032;50.782;6.818;2022-12-18T00:22:00;12.05;;;5.65;;
72891;SDS011;61032;50.782;6.818;2022-12-18T00:23:00;12.40;;;6.68;;
72891;SDS011;61032;50.782;6.818;2022-12-18T00:24:00;12.48;;;6.25;;
72891;SDS011;61032;50.782;6.818;2022-12-18T00:25:01;11.20;;;5.75;;
72891;SDS011;61032;50.782;6.818;2022-12-18T00:26:01;11.27;;;5.97;;
72891;SDS011;61032;50.782;6.818;2022-12-18T00:27:04;12.27;;;6.65;;
72891;SDS011;61032;50.782;6.818;2022-12-18T00:28:04;12.60;;;6.05;;
72891;SDS011;61032;50.782;6.818;2022-12-18T00:29:06;10.85;;;6.15;;
72891;SDS011;61032;50.782;6.818;2022-12-18T00:30:16;10.63;;;5.60;;
72891;SDS011;61032;50.782;6.818;2022-12-18T00:31:20;10.93;;;6.88;;
72891;SDS011;61032;50.782;6.818;2022-12-18T00:32:22;9.82;;;5.63;;
72891;SDS011;61032;50.782;6.818;2022-12-18T00:33:22;10.27;;;5.53;;
72891;SDS011;61032;50.782;6.818;2022-12-18T00:34:23;10.45;;;5.50;;
72891;SDS011;61032;50.782;6.818;2022-12-18T00:35:23;8.82;;;5.13;;
72891;SDS011;61032;50.782;6.818;2022-12-18T00:36:27;11.60;;;6.35;;
72891;SDS011;61032;50.782;6.818;2022-12-18T00:37:29;10.25;;;5.13;;
72891;SDS011;61032;50.782;6.818;2022-12-18T00:38:29;11.13;;;5.88;;
72891;SDS011;61032;50.782;6.818;2022-12-18T00:39:30;10.45;;;5.47;;
72891;SDS011;61032;50.782;6.818;2022-12-18T00:40:30;12.52;;;5.50;;
72891;SDS011;61032;50.782;6.818;2022-12-18T00:41:30;10.55;;;5.60;;
72891;SDS011;61032;50.782;6.818;2022-12-18T00:42:49;9.20;;;5.13;;
72891;SDS011;61032;50.782;6.818;2022-12-18T00:43:56;12.98;;;5.55;;
72891;SDS011;61032;50.782;6.818;2022-12-18T00:44:56;11.45;;;5.40;;
72891;SDS011;61032;50.782;6.818;2022-12-18T00:45:56;9.55;;;4.80;;
72891;SDS011;61032;50.782;6.818;2022-12-18T00:46:57;9.60;;;5.82;;
72891;SDS011;61032;50.782;6.818;2022-12-18T00:47:57;9.93;;;5.20;;
72891;SDS011;61032;50.782;6.818;2022-12-18T00:48:57;9.55;;;5.28;;
72891;SDS011;61032;50.782;6.818;2022-12-18T00:49:58;9.82;;;4.95;;
72891;SDS011;61032;50.782;6.818;2022-12-18T00:50:58;9.82;;;5.47;;
72891;SDS011;61032;50.782;6.818;2022-12-18T00:51:59;8.98;;;5.82;;
72891;SDS011;61032;50.782;6.818;2022-12-18T00:52:59;9.65;;;4.72;;
72891;SDS011;61032;50.782;6.818;2022-12-18T00:53:59;8.52;;;5.40;;
72891;SDS011;61032;50.782;6.818;2022-12-18T00:55:00;14.27;;;5.88;;
72891;SDS011;61032;50.782;6.818;2022-12-18T00:56:00;14.93;;;5.55;;
72891;SDS011;61032;50.782;6.818;2022-12-18T00:57:00;7.35;;;5.13;;
72891;SDS011;61032;50.782;6.818;2022-12-18T00:58:00;12.02;;;5.70;;
72891;SDS011;61032;50.782;6.818;2022-12-18T00:59:01;10.43;;;5.18;;
72891;SDS011;61032;50.782;6.818;2022-12-18T01:00:01;9.23;;;5.97;;
72891;SDS011;61032;50.782;6.818;2022-12-18T01:01:04;11.25;;;5.60;;
72891;SDS011;61032;50.782;6.818;2022-12-18T01:02:05;10.43;;;5.60;;
72891;SDS011;61032;50.782;6.818;2022-12-18T01:03:05;11.30;;;5.78;;
72891;SDS011;61032;50.782;6.818;2022-12-18T01:04:05;10.35;;;5.25;;
72891;SDS011;61032;50.782;6.818;2022-12-18T01:05:06;10.65;;;5.90;;
72891;SDS011;61032;50.782;6.818;2022-12-18T01:06:08;11.98;;;5.97;;
72891;SDS011;61032;50.782;6.818;2022-12-18T01:07:11;12.13;;;6.03;;
72891;SDS011;61032;50.782;6.818;2022-12-18T01:08:11;10.55;;;5.05;;
72891;SDS011;61032;50.782;6.818;2022-12-18T01:09:12;10.57;;;4.80;;
72891;SDS011;61032;50.782;6.818;2022-12-18T01:10:12;12.10;;;5.55;;
72891;SDS011;61032;50.782;6.818;2022-12-18T01:11:14;11.02;;;5.57;;
72891;SDS011;61032;50.782;6.818;2022-12-18T01:12:19;10.45;;;5.40;;
72891;SDS011;61032;50.782;6.818;2022-12-18T01:13:19;8.82;;;5.07;;
72891;SDS011;61032;50.782;6.818;2022-12-18T01:14:19;8.98;;;5.30;;
72891;SDS011;61032;50.782;6.818;2022-12-18T01:15:20;10.05;;;5.60;;
72891;SDS011;61032;50.782;6.818;2022-12-18T01:16:20;9.65;;;5.07;;
72891;SDS011;61032;50.782;6.818;2022-12-18T01:17:21;10.38;;;5.32;;
72891;SDS011;61032;50.782;6.818;2022-12-18T01:18:22;10.90;;;5.28;;
72891;SDS011;61032;50.782;6.818;2022-12-18T01:19:22;16.15;;;5.95;;
72891;SDS011;61032;50.782;6.818;2022-12-18T01:20:23;8.80;;;5.60;;
72891;SDS011;61032;50.782;6.818;2022-12-18T01:21:24;10.63;;;6.03;;
72891;SDS011;61032;50.782;6.818;2022-12-18T01:22:24;10.98;;;5.22;;
72891;SDS011;61032;50.782;6.818;2022-12-18T01:23:24;10.90;;;6.28;;
72891;SDS011;61032;50.782;6.818;2022-12-18T01:24:25;11.60;;;5.93;;
72891;SDS011;61032;50.782;6.818;2022-12-18T01:25:25;11.52;;;6.13;;
72891;SDS011;61032;50.782;6.818;2022-12-18T01:26:25;12.05;;;6.65;;
72891;SDS011;61032;50.782;6.818;2022-12-18T01:27:27;12.20;;;6.25;;
72891;SDS011;61032;50.782;6.818;2022-12-18T01:28:27;9.70;;;5.65;;
72891;SDS011;61032;50.782;6.818;2022-12-18T01:29:27;13.63;;;6.95;;
72891;SDS011;61032;50.782;6.818;2022-12-18T01:30:28;12.32;;;5.88;;
72891;SDS011;61032;50.782;6.818;2022-12-18T01:31:29;12.75;;;6.63;;
72891;SDS011;61032;50.782;6.818;2022-12-18T01:32:31;10.27;;;5.63;;
72891;SDS011;61032;50.782;6.818;2022-12-18T01:33:31;11.80;;;6.88;;
72891;SDS011;61032;50.782;6.818;2022-12-18T01:34:32;11.05;;;6.05;;
72891;SDS011;61032;50.782;6.818;2022-12-18T01:35:32;11.32;;;5.55;;
72891;SDS011;61032;50.782;6.818;2022-12-18T01:36:34;12.13;;;6.72;;
72891;SDS011;61032;50.782;6.818;2022-12-18T01:37:36;12.73;;;6.35;;
72891;SDS011;61032;50.782;6.818;2022-12-18T01:38:36;11.40;;;6.32;;
72891;SDS011;61032;50.782;6.818;2022-12-18T01:39:36;12.23;;;6.18;;
72891;SDS011;61032;50.782;6.818;2022-12-18T01:40:36;10.48;;;6.07;;
72891;SDS011;61032;50.782;6.818;2022-12-18T01:41:37;13.55;;;6.30;;
72891;SDS011;61032;50.782;6.818;2022-12-18T01:42:56;15.13;;;6.05;;
72891;SDS011;61032;50.782;6.818;2022-12-18T01:43:57;10.38;;;5.88;;
72891;SDS011;61032;50.782;6.818;2022-12-18T01:44:59;9.95;;;5.55;;
72891;SDS011;61032;50.782;6.818;2022-12-18T01:45:59;12.73;;;5.88;;
72891;SDS011;61032;50.782;6.818;2022-12-18T01:47:00;11.10;;;6.78;;
72891;SDS011;61032;50.782;6.818;2022-12-18T01:48:01;10.52;;;6.10;;
72891;SDS011;61032;50.782;6.818;2022-12-18T01:49:05;12.68;;;7.00;;
72891;SDS011;61032;50.782;6.818;2022-12-18T01:51:28;15.98;;;6.32;;
72891;SDS011;61032;50.782;6.818;2022-12-18T01:52:31;10.27;;;5.63;;
72891;SDS011;61032;50.782;6.818;2022-12-18T01:54:32;8.30;;;4.90;;
72891;SDS011;61032;50.782;6.818;2022-12-18T01:55:37;11.48;;;5.95;;
72891;SDS011;61032;50.782;6.818;2022-12-18T01:56:43;13.20;;;5.60;;
72891;SDS011;61032;50.782;6.818;2022-12-18T01:57:43;15.45;;;7.30;;
72891;SDS011;61032;50.782;6.818;2022-12-18T01:59:55;10.40;;;5.75;;
72891;SDS011;61032;50.782;6.818;2022-12-18T02:01:00;12.60;;;5.75;;
72891;SDS011;61032;50.782;6.818;2022-12-18T02:02:01;10.48;;;6.03;;
72891;SDS011;61032;50.782;6.818;2022-12-18T02:03:02;12.73;;;6.10;;
72891;SDS011;61032;50.782;6.818;2022-12-18T02:04:18;12.52;;;6.90;;
72891;SDS011;61032;50.782;6.818;2022-12-18T02:06:34;10.90;;;5.45;;
72891;SDS011;61032;50.782;6.818;2022-12-18T02:10:24;11.18;;;5.93;;
72891;SDS011;61032;50.782;6.818;2022-12-18T02:11:49;12.27;;;6.45;;
72891;SDS011;61032;50.782;6.818;2022-12-18T02:15:22;10.63;;;6.20;;
72891;SDS011;61032;50.782;6.818;2022-12-18T02:16:39;13.05;;;6.85;;
72891;SDS011;61032;50.782;6.818;2022-12-18T02:17:55;11.98;;;5.68;;
72891;SDS011;61032;50.782;6.818;2022-12-18T02:19:06;13.35;;;6.07;;
72891;SDS011;61032;50.782;6.818;2022-12-18T02:20:36;10.48;;;4.80;;
72891;SDS011;61032;50.782;6.818;2022-12-18T02:21:48;12.88;;;6.25;;
72891;SDS011;61032;50.782;6.818;2022-12-18T02:26:45;11.85;;;6.00;;
72891;SDS011;61032;50.782;6.818;2022-12-18T02:27:50;10.82;;;6.10;;
72891;SDS011;61032;50.782;6.818;2022-12-18T02:28:55;10.60;;;6.10;;
72891;SDS011;61032;50.782;6.818;2022-12-18T02:30:01;14.85;;;6.60;;
72891;SDS011;61032;50.782;6.818;2022-12-18T02:31:04;11.90;;;5.68;;
72891;SDS011;61032;50.782;6.818;2022-12-18T02:32:10;11.38;;;6.50;;
72891;SDS011;61032;50.782;6.818;2022-12-18T02:33:14;10.45;;;5.97;;
72891;SDS011;61032;50.782;6.818;2022-12-18T02:34:15;11.48;;;5.90;;
72891;SDS011;61032;50.782;6.818;2022-12-18T02:35:20;11.95;;;6.15;;
72891;SDS011;61032;50.782;6.818;2022-12-18T02:36:23;12.88;;;6.45;;
72891;SDS011;61032;50.782;6.818;2022-12-18T02:37:27;12.30;;;6.85;;
72891;SDS011;61032;50.782;6.818;2022-12-18T02:39:30;13.05;;;4.95;;
72891;SDS011;61032;50.782;6.818;2022-12-18T02:40:33;13.32;;;5.35;;
72891;SDS011;61032;50.782;6.818;2022-12-18T02:41:34;12.55;;;6.57;;
72891;SDS011;61032;50.782;6.818;2022-12-18T02:42:36;12.80;;;6.53;;
72891;SDS011;61032;50.782;6.818;2022-12-18T02:43:36;17.50;;;7.85;;
72891;SDS011;61032;50.782;6.818;2022-12-18T02:44:47;10.13;;;6.40;;
72891;SDS011;61032;50.782;6.818;2022-12-18T02:45:53;14.50;;;6.85;;
72891;SDS011;61032;50.782;6.818;2022-12-18T02:46:55;10.63;;;5.93;;
72891;SDS011;61032;50.782;6.818;2022-12-18T02:47:56;14.95;;;6.68;;
72891;SDS011;61032;50.782;6.818;2022-12-18T02:48:59;11.90;;;5.72;;
72891;SDS011;61032;50.782;6.818;2022-12-18T02:51:29;11.02;;;5.57;;
72891;SDS011;61032;50.782;6.818;2022-12-18T02:52:41;10.88;;;6.50;;
72891;SDS011;61032;50.782;6.818;2022-12-18T02:54:06;9.43;;;5.75;;
72891;SDS011;61032;50.782;6.818;2022-12-18T02:57:05;13.70;;;5.90;;
72891;SDS011;61032;50.782;6.818;2022-12-18T03:01:03;11.35;;;5.90;;
72891;SDS011;61032;50.782;6.818;2022-12-18T03:02:23;13.45;;;6.28;;
72891;SDS011;61032;50.782;6.818;2022-12-18T03:03:30;11.25;;;5.80;;
72891;SDS011;61032;50.782;6.818;2022-12-18T03:04:43;13.90;;;6.00;;
72891;SDS011;61032;50.782;6.818;2022-12-18T03:05:50;9.55;;;5.75;;
72891;SDS011;61032;50.782;6.818;2022-12-18T03:06:58;14.45;;;7.10;;
72891;SDS011;61032;50.782;6.818;2022-12-18T03:08:03;11.63;;;6.28;;
72891;SDS011;61032;50.782;6.818;2022-12-18T03:09:14;12.15;;;6.75;;
72891;SDS011;61032;50.782;6.818;2022-12-18T03:10:20;11.73;;;6.32;;
72891;SDS011;61032;50.782;6.818;2022-12-18T03:11:26;12.70;;;6.45;;
72891;SDS011;61032;50.782;6.818;2022-12-18T03:12:54;12.27;;;6.10;;
72891;SDS011;61032;50.782;6.818;2022-12-18T03:14:01;14.93;;;6.70;;
72891;SDS011;61032;50.782;6.818;2022-12-18T03:15:10;13.23;;;6.53;;
72891;SDS011;61032;50.782;6.818;2022-12-18T03:16:26;12.85;;;7.53;;
72891;SDS011;61032;50.782;6.818;2022-12-18T03:18:36;13.98;;;5.72;;
72891;SDS011;61032;50.782;6.818;2022-12-18T03:19:41;15.90;;;6.70;;
72891;SDS011;61032;50.782;6.818;2022-12-18T03:20:44;17.15;;;7.40;;
72891;SDS011;61032;50.782;6.818;2022-12-18T03:21:49;14.35;;;6.25;;
72891;SDS011;61032;50.782;6.818;2022-12-18T03:22:54;14.30;;;7.40;;
72891;SDS011;61032;50.782;6.818;2022-12-18T03:24:00;13.73;;;6.05;;
72891;SDS011;61032;50.782;6.818;2022-12-18T03:25:06;13.32;;;6.65;;
72891;SDS011;61032;50.782;6.818;2022-12-18T03:26:10;14.80;;;6.50;;
72891;SDS011;61032;50.782;6.818;2022-12-18T03:27:14;12.77;;;6.65;;
72891;SDS011;61032;50.782;6.818;2022-12-18T03:28:19;13.90;;;6.72;;
72891;SDS011;61032;50.782;6.818;2022-12-18T03:29:23;13.23;;;6.93;;
72891;SDS011;61032;50.782;6.818;2022-12-18T03:30:28;16.50;;;7.10;;
72891;SDS011;61032;50.782;6.818;2022-12-18T03:31:35;13.57;;;6.80;;
72891;SDS011;61032;50.782;6.818;2022-12-18T03:32:50;12.15;;;6.15;;
72891;SDS011;61032;50.782;6.818;2022-12-18T03:34:01;10.88;;;5.95;;
72891;SDS011;61032;50.782;6.818;2022-12-18T03:35:09;14.25;;;6.82;;
72891;SDS011;61032;50.782;6.818;2022-12-18T03:36:13;13.45;;;6.28;;
72891;SDS011;61032;50.782;6.818;2022-12-18T03:37:14;15.05;;;6.70;;
72891;SDS011;61032;50.782;6.818;2022-12-18T03:38:14;14.18;;;7.68;;
72891;SDS011;61032;50.782;6.818;2022-12-18T03:39:15;13.57;;;6.65;;
72891;SDS011;61032;50.782;6.818;2022-12-18T03:40:15;15.75;;;6.85;;
72891;SDS011;61032;50.782;6.818;2022-12-18T03:42:53;13.18;;;6.90;;
72891;SDS011;61032;50.782;6.818;2022-12-18T03:44:04;14.75;;;6.53;;
72891;SDS011;61032;50.782;6.818;2022-12-18T03:45:13;12.13;;;6.28;;
72891;SDS011;61032;50.782;6.818;2022-12-18T03:46:26;11.05;;;6.97;;
72891;SDS011;61032;50.782;6.818;2022-12-18T03:47:42;13.90;;;6.97;;
72891;SDS011;61032;50.782;6.818;2022-12-18T03:49:01;16.48;;;7.03;;
72891;SDS011;61032;50.782;6.818;2022-12-18T03:50:12;13.55;;;6.45;;
72891;SDS011;61032;50.782;6.818;2022-12-18T03:51:19;15.05;;;7.43;;
72891;SDS011;61032;50.782;6.818;2022-12-18T03:52:40;11.60;;;6.47;;
72891;SDS011;61032;50.782;6.818;2022-12-18T03:53:52;9.60;;;5.60;;
72891;SDS011;61032;50.782;6.818;2022-12-18T03:54:57;15.20;;;6.90;;
72891;SDS011;61032;50.782;6.818;2022-12-18T03:56:00;10.73;;;6.15;;
72891;SDS011;61032;50.782;6.818;2022-12-18T03:57:07;14.07;;;6.65;;
72891;SDS011;61032;50.782;6.818;2022-12-18T03:58:29;15.75;;;7.85;;
72891;SDS011;61032;50.782;6.818;2022-12-18T03:59:32;13.60;;;6.60;;
72891;SDS011;61032;50.782;6.818;2022-12-18T04:00:35;15.75;;;7.18;;
72891;SDS011;61032;50.782;6.818;2022-12-18T04:01:37;14.05;;;7.32;;
72891;SDS011;61032;50.782;6.818;2022-12-18T04:02:42;15.70;;;7.18;;
72891;SDS011;61032;50.782;6.818;2022-12-18T04:03:46;13.23;;;7.43;;
72891;SDS011;61032;50.782;6.818;2022-12-18T04:04:50;13.52;;;7.25;;
72891;SDS011;61032;50.782;6.818;2022-12-18T04:05:54;13.88;;;6.65;;
72891;SDS011;61032;50.782;6.818;2022-12-18T04:06:56;15.15;;;7.25;;
72891;SDS011;61032;50.782;6.818;2022-12-18T04:07:58;13.55;;;7.03;;
72891;SDS011;61032;50.782;6.818;2022-12-18T04:08:59;12.52;;;6.55;;
72891;SDS011;61032;50.782;6.818;2022-12-18T04:09:59;11.25;;;5.80;;
72891;SDS011;61032;50.782;6.818;2022-12-18T04:11:01;10.77;;;5.97;;
72891;SDS011;61032;50.782;6.818;2022-12-18T04:12:02;13.00;;;5.80;;
72891;SDS011;61032;50.782;6.818;2022-12-18T04:13:03;15.85;;;6.05;;
72891;SDS011;61032;50.782;6.818;2022-12-18T04:14:03;14.85;;;7.32;;
72891;SDS011;61032;50.782;6.818;2022-12-18T04:15:04;16.63;;;6.13;;
72891;SDS011;61032;50.782;6.818;2022-12-18T04:16:05;12.38;;;6.50;;
72891;SDS011;61032;50.782;6.818;2022-12-18T04:17:05;14.48;;;6.07;;
72891;SDS011;61032;50.782;6.818;2022-12-18T04:18:07;15.15;;;7.13;;
72891;SDS011;61032;50.782;6.818;2022-12-18T04:19:07;12.43;;;5.63;;
72891;SDS011;61032;50.782;6.818;2022-12-18T04:20:08;12.10;;;6.45;;
72891;SDS011;61032;50.782;6.818;2022-12-18T04:21:09;12.15;;;6.40;;
72891;SDS011;61032;50.782;6.818;2022-12-18T04:22:10;14.13;;;6.40;;
72891;SDS011;61032;50.782;6.818;2022-12-18T04:23:10;13.70;;;7.70;;
72891;SDS011;61032;50.782;6.818;2022-12-18T04:24:11;14.30;;;6.55;;
72891;SDS011;61032;50.782;6.818;2022-12-18T04:25:11;12.13;;;6.80;;
72891;SDS011;61032;50.782;6.818;2022-12-18T04:26:12;12.88;;;5.75;;
72891;SDS011;61032;50.782;6.818;2022-12-18T04:27:12;12.18;;;6.32;;
72891;SDS011;61032;50.782;6.818;2022-12-18T04:28:13;12.65;;;5.65;;
72891;SDS011;61032;50.782;6.818;2022-12-18T04:29:14;12.60;;;6.95;;
72891;SDS011;61032;50.782;6.818;2022-12-18T04:30:14;10.05;;;5.90;;
72891;SDS011;61032;50.782;6.818;2022-12-18T04:31:14;12.98;;;6.72;;
72891;SDS011;61032;50.782;6.818;2022-12-18T04:32:15;12.88;;;6.32;;
72891;SDS011;61032;50.782;6.818;2022-12-18T04:33:15;13.90;;;6.35;;
72891;SDS011;61032;50.782;6.818;2022-12-18T04:34:15;12.00;;;5.93;;
72891;SDS011;61032;50.782;6.818;2022-12-18T04:35:16;13.48;;;7.40;;
72891;SDS011;61032;50.782;6.818;2022-12-18T04:36:17;12.13;;;6.30;;
72891;SDS011;61032;50.782;6.818;2022-12-18T04:37:18;14.70;;;6.72;;
72891;SDS011;61032;50.782;6.818;2022-12-18T04:38:18;12.55;;;6.88;;
72891;SDS011;61032;50.782;6.818;2022-12-18T04:39:18;13.30;;;7.20;;
72891;SDS011;61032;50.782;6.818;2022-12-18T04:40:19;13.23;;;6.18;;
72891;SDS011;61032;50.782;6.818;2022-12-18T04:41:19;14.05;;;6.82;;
72891;SDS011;61032;50.782;6.818;2022-12-18T04:42:19;14.20;;;7.03;;
72891;SDS011;61032;50.782;6.818;2022-12-18T04:43:20;11.35;;;6.32;;
72891;SDS011;61032;50.782;6.818;2022-12-18T04:44:20;14.38;;;7.30;;
72891;SDS011;61032;50.782;6.818;2022-12-18T04:45:20;12.63;;;6.18;;
72891;SDS011;61032;50.782;6.818;2022-12-18T04:46:21;16.52;;;7.15;;
72891;SDS011;61032;50.782;6.818;2022-12-18T04:47:21;15.70;;;7.00;;
72891;SDS011;61032;50.782;6.818;2022-12-18T04:48:21;14.50;;;6.18;;
72891;SDS011;61032;50.782;6.818;2022-12-18T04:49:22;12.95;;;6.35;;
72891;SDS011;61032;50.782;6.818;2022-12-18T04:50:22;10.45;;;6.63;;
72891;SDS011;61032;50.782;6.818;2022-12-18T04:51:22;14.82;;;7.38;;
72891;SDS011;61032;50.782;6.818;2022-12-18T04:52:23;12.85;;;6.15;;
72891;SDS011;61032;50.782;6.818;2022-12-18T04:53:23;11.95;;;7.18;;
72891;SDS011;61032;50.782;6.818;2022-12-18T04:54:23;14.48;;;6.20;;
72891;SDS011;61032;50.782;6.818;2022-12-18T04:55:23;17.63;;;7.25;;
72891;SDS011;61032;50.782;6.818;2022-12-18T04:56:24;11.65;;;6.68;;
72891;SDS011;61032;50.782;6.818;2022-12-18T04:57:24;13.15;;;7.10;;
72891;SDS011;61032;50.782;6.818;2022-12-18T04:58:25;11.55;;;6.80;;
72891;SDS011;61032;50.782;6.818;2022-12-18T04:59:25;12.85;;;7.78;;
72891;SDS011;61032;50.782;6.818;2022-12-18T05:00:25;14.10;;;7.32;;
72891;SDS011;61032;50.782;6.818;2022-12-18T05:01:26;13.27;;;6.82;;
72891;SDS011;61032;50.782;6.818;2022-12-18T05:02:26;13.40;;;5.78;;
72891;SDS011;61032;50.782;6.818;2022-12-18T05:03:26;12.27;;;6.20;;
72891;SDS011;61032;50.782;6.818;2022-12-18T05:04:27;11.85;;;5.97;;
72891;SDS011;61032;50.782;6.818;2022-12-18T05:05:27;13.32;;;7.13;;
72891;SDS011;61032;50.782;6.818;2022-12-18T05:06:28;11.85;;;6.45;;
72891;SDS011;61032;50.782;6.818;2022-12-18T05:07:28;14.70;;;7.78;;
72891;SDS011;61032;50.782;6.818;2022-12-18T05:08:29;13.95;;;6.93;;
72891;SDS011;61032;50.782;6.818;2022-12-18T05:09:29;15.43;;;7.20;;
72891;SDS011;61032;50.782;6.818;2022-12-18T05:10:29;11.63;;;7.05;;
72891;SDS011;61032;50.782;6.818;2022-12-18T05:11:29;13.23;;;5.93;;
72891;SDS011;61032;50.782;6.818;2022-12-18T05:12:30;15.88;;;7.10;;
72891;SDS011;61032;50.782;6.818;2022-12-18T05:13:31;11.13;;;6.95;;
72891;SDS011;61032;50.782;6.818;2022-12-18T05:14:32;11.73;;;5.57;;
72891;SDS011;61032;50.782;6.818;2022-12-18T05:15:32;15.07;;;7.38;;
72891;SDS011;61032;50.782;6.818;2022-12-18T05:16:34;13.50;;;6.72;;
72891;SDS011;61032;50.782;6.818;2022-12-18T05:17:34;14.27;;;7.32;;
72891;SDS011;61032;50.782;6.818;2022-12-18T05:18:35;13.35;;;6.85;;
72891;SDS011;61032;50.782;6.818;2022-12-18T05:19:35;13.27;;;7.10;;
72891;SDS011;61032;50.782;6.818;2022-12-18T05:20:36;15.68;;;7.47;;
72891;SDS011;61032;50.782;6.818;2022-12-18T05:21:36;14.18;;;6.57;;
72891;SDS011;61032;50.782;6.818;2022-12-18T05:22:36;14.85;;;6.82;;
72891;SDS011;61032;50.782;6.818;2022-12-18T05:23:37;13.50;;;6.68;;
72891;SDS011;61032;50.782;6.818;2022-12-18T05:24:37;14.85;;;7.47;;
72891;SDS011;61032;50.782;6.818;2022-12-18T05:25:37;14.75;;;6.97;;
72891;SDS011;61032;50.782;6.818;2022-12-18T05:26:38;15.20;;;7.05;;
72891;SDS011;61032;50.782;6.818;2022-12-18T05:27:38;14.23;;;7.53;;
72891;SDS011;61032;50.782;6.818;2022-12-18T05:28:38;15.32;;;7.05;;
72891;SDS011;61032;50.782;6.818;2022-12-18T05:29:39;15.77;;;7.00;;
72891;SDS011;61032;50.782;6.818;2022-12-18T05:30:39;16.42;;;8.27;;
72891;SDS011;61032;50.782;6.818;2022-12-18T05:31:39;15.77;;;7.28;;
72891;SDS011;61032;50.782;6.818;2022-12-18T05:32:40;16.48;;;7.90;;
72891;SDS011;61032;50.782;6.818;2022-12-18T05:33:40;13.35;;;6.40;;
72891;SDS011;61032;50.782;6.818;2022-12-18T05:34:40;12.88;;;7.03;;
72891;SDS011;61032;50.782;6.818;2022-12-18T05:35:41;16.40;;;7.35;;
72891;SDS011;61032;50.782;6.818;2022-12-18T05:36:42;17.70;;;7.97;;
72891;SDS011;61032;50.782;6.818;2022-12-18T05:37:42;11.95;;;6.50;;
72891;SDS011;61032;50.782;6.818;2022-12-18T05:38:43;16.70;;;8.60;;
72891;SDS011;61032;50.782;6.818;2022-12-18T05:39:44;15.73;;;7.40;;
72891;SDS011;61032;50.782;6.818;2022-12-18T05:40:46;15.23;;;7.13;;
72891;SDS011;61032;50.782;6.818;2022-12-18T05:41:47;13.63;;;7.25;;
72891;SDS011;61032;50.782;6.818;2022-12-18T05:42:48;16.30;;;7.70;;
72891;SDS011;61032;50.782;6.818;2022-12-18T05:43:48;15.32;;;8.77;;
72891;SDS011;61032;50.782;6.818;2022-12-18T05:44:48;14.43;;;8.10;;
72891;SDS011;61032;50.782;6.818;2022-12-18T05:45:49;14.02;;;7.50;;
72891;SDS011;61032;50.782;6.818;2022-12-18T05:46:50;16.33;;;7.97;;
72891;SDS011;61032;50.782;6.818;2022-12-18T05:47:50;16.13;;;7.60;;
72891;SDS011;61032;50.782;6.818;2022-12-18T05:48:50;14.95;;;8.15;;
72891;SDS011;61032;50.782;6.818;2022-12-18T05:49:51;14.45;;;7.63;;
72891;SDS011;61032;50.782;6.818;2022-12-18T05:50:51;17.17;;;8.82;;
72891;SDS011;61032;50.782;6.818;2022-12-18T05:51:52;15.57;;;8.20;;
72891;SDS011;61032;50.782;6.818;2022-12-18T05:52:52;18.60;;;7.78;;
72891;SDS011;61032;50.782;6.818;2022-12-18T05:53:52;13.73;;;7.60;;
72891;SDS011;61032;50.782;6.818;2022-12-18T05:54:53;14.93;;;7.20;;
72891;SDS011;61032;50.782;6.818;2022-12-18T05:55:53;15.80;;;7.80;;
72891;SDS011;61032;50.782;6.818;2022-12-18T05:56:53;15.52;;;8.20;;
72891;SDS011;61032;50.782;6.818;2022-12-18T05:57:54;18.10;;;8.18;;
72891;SDS011;61032;50.782;6.818;2022-12-18T05:58:54;15.50;;;7.53;;
72891;SDS011;61032;50.782;6.818;2022-12-18T05:59:54;15.35;;;7.60;;
72891;SDS011;61032;50.782;6.818;2022-12-18T06:00:55;13.35;;;6.47;;
72891;SDS011;61032;50.782;6.818;2022-12-18T06:01:55;17.50;;;8.20;;
72891;SDS011;61032;50.782;6.818;2022-12-18T06:02:55;16.27;;;7.05;;
72891;SDS011;61032;50.782;6.818;2022-12-18T06:03:56;14.57;;;6.88;;
72891;SDS011;61032;50.782;6.818;2022-12-18T06:04:56;13.93;;;7.47;;
72891;SDS011;61032;50.782;6.818;2022-12-18T06:05:56;14.63;;;8.35;;
72891;SDS011;61032;50.782;6.818;2022-12-18T06:06:57;17.55;;;8.38;;
72891;SDS011;61032;50.782;6.818;2022-12-18T06:07:57;16.33;;;8.13;;
72891;SDS011;61032;50.782;6.818;2022-12-18T06:08:58;16.65;;;8.60;;
72891;SDS011;61032;50.782;6.818;2022-12-18T06:09:58;14.63;;;7.18;;
72891;SDS011;61032;50.782;6.818;2022-12-18T06:10:58;18.50;;;8.50;;
72891;SDS011;61032;50.782;6.818;2022-12-18T06:11:59;15.10;;;8.57;;
72891;SDS011;61032;50.782;6.818;2022-12-18T06:12:59;15.98;;;7.35;;
72891;SDS011;61032;50.782;6.818;2022-12-18T06:14:00;15.18;;;7.53;;
72891;SDS011;61032;50.782;6.818;2022-12-18T06:15:00;15.30;;;7.90;;
72891;SDS011;61032;50.782;6.818;2022-12-18T06:16:01;15.20;;;8.13;;
72891;SDS011;61032;50.782;6.818;2022-12-18T06:17:05;16.05;;;7.20;;
72891;SDS011;61032;50.782;6.818;2022-12-18T06:18:05;15.52;;;7.55;;
72891;SDS011;61032;50.782;6.818;2022-12-18T06:19:05;16.00;;;8.20;;
72891;SDS011;61032;50.782;6.818;2022-12-18T06:20:06;15.60;;;8.25;;
72891;SDS011;61032;50.782;6.818;2022-12-18T06:21:06;14.73;;;8.38;;
72891;SDS011;61032;50.782;6.818;2022-12-18T06:22:07;15.70;;;9.35;;
72891;SDS011;61032;50.782;6.818;2022-12-18T06:23:07;16.70;;;8.18;;
72891;SDS011;61032;50.782;6.818;2022-12-18T06:24:09;14.73;;;7.35;;
72891;SDS011;61032;50.782;6.818;2022-12-18T06:25:10;14.05;;;6.53;;
72891;SDS011;61032;50.782;6.818;2022-12-18T06:26:11;14.68;;;7.97;;
72891;SDS011;61032;50.782;6.818;2022-12-18T06:27:12;16.38;;;8.50;;
72891;SDS011;61032;50.782;6.818;2022-12-18T06:28:13;16.27;;;8.68;;
72891;SDS011;61032;50.782;6.818;2022-12-18T06:29:13;16.25;;;8.05;;
72891;SDS011;61032;50.782;6.818;2022-12-18T06:30:13;18.40;;;8.48;;
72891;SDS011;61032;50.782;6.818;2022-12-18T06:31:14;12.93;;;7.15;;
72891;SDS011;61032;50.782;6.818;2022-12-18T06:32:14;16.90;;;8.57;;
72891;SDS011;61032;50.782;6.818;2022-12-18T06:33:15;16.40;;;7.18;;
72891;SDS011;61032;50.782;6.818;2022-12-18T06:34:16;14.05;;;7.57;;
72891;SDS011;61032;50.782;6.818;2022-12-18T06:35:16;19.23;;;7.68;;
72891;SDS011;61032;50.782;6.818;2022-12-18T06:36:17;15.77;;;7.55;;